sensor_id;sensor_type;location;lat;lon;timestamp;temperature;humidity
17236;DHT22;8734;59.272;17.780;2023-04-03T00:01:35;-2.90;99.90
17236;DHT22;8734;59.272;17.780;2023-04-03T00:04:05;-2.90;99.90
17236;DHT22;8734;59.272;17.780;2023-04-03T00:06:34;-2.90;99.90
17236;DHT22;8734;59.272;17.780;2023-04-03T00:09:03;-3.00;99.90
17236;DHT22;8734;59.272;17.780;2023-04-03T00:11:31;-3.10;99.90
17236;DHT22;8734;59.272;17.780;2023-04-03T00:13:59;-3.20;99.90
17236;DHT22;8734;59.272;17.780;2023-04-03T00:16:28;-3.20;99.90
17236;DHT22;8734;59.272;17.780;2023-04-03T00:18:57;-3.30;99.90
17236;DHT22;8734;59.272;17.780;2023-04-03T00:21:25;-3.40;99.90
17236;DHT22;8734;59.272;17.780;2023-04-03T00:23:55;-3.50;99.90
17236;DHT22;8734;59.272;17.780;2023-04-03T00:26:24;-3.60;99.90
17236;DHT22;8734;59.272;17.780;2023-04-03T00:28:52;-3.70;99.90
17236;DHT22;8734;59.272;17.780;2023-04-03T00:31:20;-3.70;99.90
17236;DHT22;8734;59.272;17.780;2023-04-03T00:33:49;-3.70;99.90
17236;DHT22;8734;59.272;17.780;2023-04-03T00:36:18;-3.80;99.90
17236;DHT22;8734;59.272;17.780;2023-04-03T00:38:47;-3.80;99.90
17236;DHT22;8734;59.272;17.780;2023-04-03T00:41:16;-3.80;99.90
17236;DHT22;8734;59.272;17.780;2023-04-03T00:43:45;-3.80;99.90
17236;DHT22;8734;59.272;17.780;2023-04-03T00:46:13;-3.90;99.90
17236;DHT22;8734;59.272;17.780;2023-04-03T00:48:44;-3.80;99.90
17236;DHT22;8734;59.272;17.780;2023-04-03T00:51:15;-3.90;99.90
17236;DHT22;8734;59.272;17.780;2023-04-03T00:53:47;-3.90;99.90
17236;DHT22;8734;59.272;17.780;2023-04-03T00:56:22;-3.90;99.90
17236;DHT22;8734;59.272;17.780;2023-04-03T00:58:54;-3.90;99.90
17236;DHT22;8734;59.272;17.780;2023-04-03T01:01:27;-3.90;99.90
17236;DHT22;8734;59.272;17.780;2023-04-03T01:03:58;-3.70;99.90
17236;DHT22;8734;59.272;17.780;2023-04-03T01:06:29;-3.60;99.90
17236;DHT22;8734;59.272;17.780;2023-04-03T01:08:59;-3.40;99.90
17236;DHT22;8734;59.272;17.780;2023-04-03T01:11:30;-3.40;99.90
17236;DHT22;8734;59.272;17.780;2023-04-03T01:13:58;-3.30;99.90
17236;DHT22;8734;59.272;17.780;2023-04-03T01:16:30;-3.40;99.90
17236;DHT22;8734;59.272;17.780;2023-04-03T01:18:59;-3.40;99.90
17236;DHT22;8734;59.272;17.780;2023-04-03T01:22:03;-3.50;99.90
17236;DHT22;8734;59.272;17.780;2023-04-03T01:24:36;-3.60;99.90
17236;DHT22;8734;59.272;17.780;2023-04-03T01:27:09;-3.70;99.90
17236;DHT22;8734;59.272;17.780;2023-04-03T01:29:39;-3.80;99.90
17236;DHT22;8734;59.272;17.780;2023-04-03T01:32:10;-3.80;99.90
17236;DHT22;8734;59.272;17.780;2023-04-03T01:34:38;-3.90;99.90
17236;DHT22;8734;59.272;17.780;2023-04-03T01:37:07;-4.00;99.90
17236;DHT22;8734;59.272;17.780;2023-04-03T01:39:35;-4.10;99.90
17236;DHT22;8734;59.272;17.780;2023-04-03T01:42:04;-4.10;99.90
17236;DHT22;8734;59.272;17.780;2023-04-03T01:44:32;-4.10;99.90
17236;DHT22;8734;59.272;17.780;2023-04-03T01:47:01;-4.10;99.90
17236;DHT22;8734;59.272;17.780;2023-04-03T01:49:30;-4.20;99.90
17236;DHT22;8734;59.272;17.780;2023-04-03T01:51:59;-4.20;99.90
17236;DHT22;8734;59.272;17.780;2023-04-03T01:54:28;-4.30;99.90
17236;DHT22;8734;59.272;17.780;2023-04-03T01:56:56;-4.40;99.90
17236;DHT22;8734;59.272;17.780;2023-04-03T01:59:25;-4.40;99.90
17236;DHT22;8734;59.272;17.780;2023-04-03T02:01:53;-4.40;99.90
17236;DHT22;8734;59.272;17.780;2023-04-03T02:04:22;-4.40;99.90
17236;DHT22;8734;59.272;17.780;2023-04-03T02:06:52;-4.50;99.90
17236;DHT22;8734;59.272;17.780;2023-04-03T02:09:20;-4.60;99.90
17236;DHT22;8734;59.272;17.780;2023-04-03T02:11:49;-4.70;99.90
17236;DHT22;8734;59.272;17.780;2023-04-03T02:14:17;-4.70;99.90
17236;DHT22;8734;59.272;17.780;2023-04-03T02:16:46;-4.70;99.90
17236;DHT22;8734;59.272;17.780;2023-04-03T02:19:15;-4.80;99.90
17236;DHT22;8734;59.272;17.780;2023-04-03T02:21:43;-4.90;99.90
17236;DHT22;8734;59.272;17.780;2023-04-03T02:24:14;-4.80;99.90
17236;DHT22;8734;59.272;17.780;2023-04-03T02:26:42;-4.80;99.90
17236;DHT22;8734;59.272;17.780;2023-04-03T02:29:10;-4.70;99.90
17236;DHT22;8734;59.272;17.780;2023-04-03T02:31:38;-4.70;99.90
17236;DHT22;8734;59.272;17.780;2023-04-03T02:34:07;-4.70;99.90
17236;DHT22;8734;59.272;17.780;2023-04-03T02:36:35;-4.60;99.90
17236;DHT22;8734;59.272;17.780;2023-04-03T02:39:04;-4.50;99.90
17236;DHT22;8734;59.272;17.780;2023-04-03T02:41:34;-4.30;99.90
17236;DHT22;8734;59.272;17.780;2023-04-03T02:44:04;-4.20;99.90
17236;DHT22;8734;59.272;17.780;2023-04-03T02:46:33;-4.00;99.90
17236;DHT22;8734;59.272;17.780;2023-04-03T02:49:01;-3.90;99.90
17236;DHT22;8734;59.272;17.780;2023-04-03T02:51:30;-3.90;99.90
17236;DHT22;8734;59.272;17.780;2023-04-03T02:53:59;-3.80;99.90
17236;DHT22;8734;59.272;17.780;2023-04-03T02:56:27;-3.80;99.90
17236;DHT22;8734;59.272;17.780;2023-04-03T02:58:57;-3.70;99.90
17236;DHT22;8734;59.272;17.780;2023-04-03T03:01:25;-3.60;99.90
17236;DHT22;8734;59.272;17.780;2023-04-03T03:03:55;-3.60;99.90
17236;DHT22;8734;59.272;17.780;2023-04-03T03:06:23;-3.60;99.90
17236;DHT22;8734;59.272;17.780;2023-04-03T03:08:52;-3.60;99.90
17236;DHT22;8734;59.272;17.780;2023-04-03T03:11:20;-3.60;99.90
17236;DHT22;8734;59.272;17.780;2023-04-03T03:13:49;-3.50;99.90
17236;DHT22;8734;59.272;17.780;2023-04-03T03:16:18;-3.50;99.90
17236;DHT22;8734;59.272;17.780;2023-04-03T03:18:47;-3.40;99.90
17236;DHT22;8734;59.272;17.780;2023-04-03T03:21:15;-3.40;99.90
17236;DHT22;8734;59.272;17.780;2023-04-03T03:23:44;-3.40;99.90
17236;DHT22;8734;59.272;17.780;2023-04-03T03:26:12;-3.50;99.90
17236;DHT22;8734;59.272;17.780;2023-04-03T03:28:41;-3.50;99.90
17236;DHT22;8734;59.272;17.780;2023-04-03T03:31:10;-3.50;99.90
17236;DHT22;8734;59.272;17.780;2023-04-03T03:33:40;-3.50;99.90
17236;DHT22;8734;59.272;17.780;2023-04-03T03:36:08;-3.50;99.90
17236;DHT22;8734;59.272;17.780;2023-04-03T03:38:37;-3.50;99.90
17236;DHT22;8734;59.272;17.780;2023-04-03T03:41:06;-3.50;99.90
17236;DHT22;8734;59.272;17.780;2023-04-03T03:43:34;-3.60;99.90
17236;DHT22;8734;59.272;17.780;2023-04-03T03:46:03;-3.50;99.90
17236;DHT22;8734;59.272;17.780;2023-04-03T03:48:32;-3.50;99.90
17236;DHT22;8734;59.272;17.780;2023-04-03T03:51:02;-3.50;99.90
17236;DHT22;8734;59.272;17.780;2023-04-03T03:53:30;-3.50;99.90
17236;DHT22;8734;59.272;17.780;2023-04-03T03:55:59;-3.50;99.90
17236;DHT22;8734;59.272;17.780;2023-04-03T03:58:27;-3.50;99.90
17236;DHT22;8734;59.272;17.780;2023-04-03T04:00:56;-3.40;99.90
17236;DHT22;8734;59.272;17.780;2023-04-03T04:03:24;-3.40;99.90
17236;DHT22;8734;59.272;17.780;2023-04-03T04:05:52;-3.40;99.90
17236;DHT22;8734;59.272;17.780;2023-04-03T04:08:23;-3.40;99.90
17236;DHT22;8734;59.272;17.780;2023-04-03T04:10:52;-3.40;99.90
17236;DHT22;8734;59.272;17.780;2023-04-03T04:13:21;-3.40;99.90
17236;DHT22;8734;59.272;17.780;2023-04-03T04:15:49;-3.40;99.90
17236;DHT22;8734;59.272;17.780;2023-04-03T04:18:18;-3.30;99.90
17236;DHT22;8734;59.272;17.780;2023-04-03T04:20:47;-3.40;99.90
17236;DHT22;8734;59.272;17.780;2023-04-03T04:23:15;-3.30;99.90
17236;DHT22;8734;59.272;17.780;2023-04-03T04:25:46;-3.40;99.90
17236;DHT22;8734;59.272;17.780;2023-04-03T04:28:15;-3.40;99.90
17236;DHT22;8734;59.272;17.780;2023-04-03T04:30:44;-3.40;99.90
17236;DHT22;8734;59.272;17.780;2023-04-03T04:33:13;-3.40;99.90
17236;DHT22;8734;59.272;17.780;2023-04-03T04:35:42;-3.40;99.90
17236;DHT22;8734;59.272;17.780;2023-04-03T04:38:10;-3.40;99.90
17236;DHT22;8734;59.272;17.780;2023-04-03T04:40:38;-3.40;99.90
17236;DHT22;8734;59.272;17.780;2023-04-03T04:43:09;-3.50;99.90
17236;DHT22;8734;59.272;17.780;2023-04-03T04:45:41;-3.50;99.90
17236;DHT22;8734;59.272;17.780;2023-04-03T04:48:09;-3.40;99.90
17236;DHT22;8734;59.272;17.780;2023-04-03T04:50:38;-3.40;99.90
17236;DHT22;8734;59.272;17.780;2023-04-03T04:53:06;-3.40;99.90
17236;DHT22;8734;59.272;17.780;2023-04-03T04:55:35;-3.30;99.90
17236;DHT22;8734;59.272;17.780;2023-04-03T04:58:04;-3.30;99.90
17236;DHT22;8734;59.272;17.780;2023-04-03T05:00:34;-3.30;99.90
17236;DHT22;8734;59.272;17.780;2023-04-03T05:03:03;-3.30;99.90
17236;DHT22;8734;59.272;17.780;2023-04-03T05:05:32;-3.20;99.90
17236;DHT22;8734;59.272;17.780;2023-04-03T05:08:01;-3.20;99.90
17236;DHT22;8734;59.272;17.780;2023-04-03T05:10:30;-3.10;99.90
17236;DHT22;8734;59.272;17.780;2023-04-03T05:12:58;-3.10;99.90
17236;DHT22;8734;59.272;17.780;2023-04-03T05:15:27;-3.10;99.90
17236;DHT22;8734;59.272;17.780;2023-04-03T05:17:56;-3.00;99.90
17236;DHT22;8734;59.272;17.780;2023-04-03T05:20:25;-3.10;99.90
17236;DHT22;8734;59.272;17.780;2023-04-03T05:22:53;-3.00;99.90
17236;DHT22;8734;59.272;17.780;2023-04-03T05:25:21;-3.10;99.90
17236;DHT22;8734;59.272;17.780;2023-04-03T05:27:52;-3.10;99.90
17236;DHT22;8734;59.272;17.780;2023-04-03T05:30:21;-3.00;99.90
17236;DHT22;8734;59.272;17.780;2023-04-03T05:32:49;-3.00;99.90
17236;DHT22;8734;59.272;17.780;2023-04-03T05:35:19;-3.00;99.90
17236;DHT22;8734;59.272;17.780;2023-04-03T05:37:47;-3.00;99.90
17236;DHT22;8734;59.272;17.780;2023-04-03T05:40:16;-2.90;99.90
17236;DHT22;8734;59.272;17.780;2023-04-03T05:42:45;-2.80;99.90
17236;DHT22;8734;59.272;17.780;2023-04-03T05:45:13;-2.80;99.90
17236;DHT22;8734;59.272;17.780;2023-04-03T05:47:41;-2.80;99.90
17236;DHT22;8734;59.272;17.780;2023-04-03T05:50:10;-2.80;99.90
17236;DHT22;8734;59.272;17.780;2023-04-03T05:52:42;-2.80;99.90
17236;DHT22;8734;59.272;17.780;2023-04-03T05:55:14;-2.70;99.90
17236;DHT22;8734;59.272;17.780;2023-04-03T05:57:42;-2.80;99.90
17236;DHT22;8734;59.272;17.780;2023-04-03T06:00:17;-2.70;99.90
17236;DHT22;8734;59.272;17.780;2023-04-03T06:02:48;-2.60;99.90
17236;DHT22;8734;59.272;17.780;2023-04-03T06:05:17;-2.40;99.90
17236;DHT22;8734;59.272;17.780;2023-04-03T06:07:47;-2.30;99.90
17236;DHT22;8734;59.272;17.780;2023-04-03T06:10:16;-2.20;99.90
17236;DHT22;8734;59.272;17.780;2023-04-03T06:12:44;-2.10;99.90
17236;DHT22;8734;59.272;17.780;2023-04-03T06:15:13;-2.10;99.90
17236;DHT22;8734;59.272;17.780;2023-04-03T06:17:43;-2.00;99.90
17236;DHT22;8734;59.272;17.780;2023-04-03T06:20:12;-1.80;99.90
17236;DHT22;8734;59.272;17.780;2023-04-03T06:22:40;-1.80;99.90
17236;DHT22;8734;59.272;17.780;2023-04-03T06:25:10;-1.70;99.90
17236;DHT22;8734;59.272;17.780;2023-04-03T06:27:39;-1.50;99.90
17236;DHT22;8734;59.272;17.780;2023-04-03T06:30:08;-1.40;99.90
17236;DHT22;8734;59.272;17.780;2023-04-03T06:32:38;-1.30;99.90
17236;DHT22;8734;59.272;17.780;2023-04-03T06:35:08;-1.20;99.90
17236;DHT22;8734;59.272;17.780;2023-04-03T06:37:37;-1.10;99.90
17236;DHT22;8734;59.272;17.780;2023-04-03T06:40:07;-1.00;99.90
17236;DHT22;8734;59.272;17.780;2023-04-03T06:42:37;-0.90;99.90
17236;DHT22;8734;59.272;17.780;2023-04-03T06:45:07;-0.70;99.90
17236;DHT22;8734;59.272;17.780;2023-04-03T06:47:37;-0.60;99.90
17236;DHT22;8734;59.272;17.780;2023-04-03T06:50:06;-0.60;99.90
17236;DHT22;8734;59.272;17.780;2023-04-03T06:52:35;-0.50;99.90
17236;DHT22;8734;59.272;17.780;2023-04-03T06:55:05;-0.40;99.90
17236;DHT22;8734;59.272;17.780;2023-04-03T06:57:33;-0.30;99.90
17236;DHT22;8734;59.272;17.780;2023-04-03T07:00:04;-0.30;99.90
17236;DHT22;8734;59.272;17.780;2023-04-03T07:02:34;-0.20;99.90
17236;DHT22;8734;59.272;17.780;2023-04-03T07:05:03;-0.20;99.90
17236;DHT22;8734;59.272;17.780;2023-04-03T07:07:31;-0.10;99.90
17236;DHT22;8734;59.272;17.780;2023-04-03T07:10:00;0.00;99.90
17236;DHT22;8734;59.272;17.780;2023-04-03T07:12:29;0.00;99.90
17236;DHT22;8734;59.272;17.780;2023-04-03T07:14:57;0.10;99.90
17236;DHT22;8734;59.272;17.780;2023-04-03T07:17:28;0.10;99.90
17236;DHT22;8734;59.272;17.780;2023-04-03T07:19:56;0.20;99.90
17236;DHT22;8734;59.272;17.780;2023-04-03T07:22:24;0.30;99.90
17236;DHT22;8734;59.272;17.780;2023-04-03T07:24:53;0.40;99.90
17236;DHT22;8734;59.272;17.780;2023-04-03T07:27:22;0.40;99.90
17236;DHT22;8734;59.272;17.780;2023-04-03T07:29:50;0.50;99.90
17236;DHT22;8734;59.272;17.780;2023-04-03T07:32:20;0.50;99.90
17236;DHT22;8734;59.272;17.780;2023-04-03T07:34:50;0.60;99.90
17236;DHT22;8734;59.272;17.780;2023-04-03T07:37:18;0.70;99.90
17236;DHT22;8734;59.272;17.780;2023-04-03T07:39:47;0.80;99.90
17236;DHT22;8734;59.272;17.780;2023-04-03T07:42:16;1.10;99.90
17236;DHT22;8734;59.272;17.780;2023-04-03T07:44:44;1.20;99.90
17236;DHT22;8734;59.272;17.780;2023-04-03T07:47:13;1.30;99.90
17236;DHT22;8734;59.272;17.780;2023-04-03T07:49:43;1.50;99.90
17236;DHT22;8734;59.272;17.780;2023-04-03T07:52:13;1.80;99.90
17236;DHT22;8734;59.272;17.780;2023-04-03T07:54:42;1.90;99.90
17236;DHT22;8734;59.272;17.780;2023-04-03T07:57:11;2.50;99.90
17236;DHT22;8734;59.272;17.780;2023-04-03T07:59:39;3.00;99.90
17236;DHT22;8734;59.272;17.780;2023-04-03T08:02:10;3.30;99.90
17236;DHT22;8734;59.272;17.780;2023-04-03T08:04:38;3.70;99.90
17236;DHT22;8734;59.272;17.780;2023-04-03T08:07:07;4.00;99.90
17236;DHT22;8734;59.272;17.780;2023-04-03T08:09:37;3.70;99.90
17236;DHT22;8734;59.272;17.780;2023-04-03T08:12:05;3.70;99.90
17236;DHT22;8734;59.272;17.780;2023-04-03T08:14:33;4.00;99.90
17236;DHT22;8734;59.272;17.780;2023-04-03T08:17:02;4.10;99.90
17236;DHT22;8734;59.272;17.780;2023-04-03T08:19:31;4.60;99.90
17236;DHT22;8734;59.272;17.780;2023-04-03T08:22:00;4.90;99.90
17236;DHT22;8734;59.272;17.780;2023-04-03T08:24:30;4.90;99.90
17236;DHT22;8734;59.272;17.780;2023-04-03T08:27:00;4.90;99.90
17236;DHT22;8734;59.272;17.780;2023-04-03T08:29:28;5.10;99.90
17236;DHT22;8734;59.272;17.780;2023-04-03T08:31:59;5.10;99.90
17236;DHT22;8734;59.272;17.780;2023-04-03T08:34:28;5.20;99.90
17236;DHT22;8734;59.272;17.780;2023-04-03T08:36:56;5.60;99.90
17236;DHT22;8734;59.272;17.780;2023-04-03T08:39:25;5.70;99.90
17236;DHT22;8734;59.272;17.780;2023-04-03T08:41:55;5.80;99.90
17236;DHT22;8734;59.272;17.780;2023-04-03T08:44:34;6.10;99.90
17236;DHT22;8734;59.272;17.780;2023-04-03T08:47:13;6.40;99.90
17236;DHT22;8734;59.272;17.780;2023-04-03T08:49:48;6.40;99.90
17236;DHT22;8734;59.272;17.780;2023-04-03T08:52:22;6.50;99.90
17236;DHT22;8734;59.272;17.780;2023-04-03T08:54:55;6.20;99.90
17236;DHT22;8734;59.272;17.780;2023-04-03T08:57:29;5.90;99.90
17236;DHT22;8734;59.272;17.780;2023-04-03T09:00:03;6.20;99.90
17236;DHT22;8734;59.272;17.780;2023-04-03T09:02:34;6.40;99.90
17236;DHT22;8734;59.272;17.780;2023-04-03T09:05:11;6.50;99.90
17236;DHT22;8734;59.272;17.780;2023-04-03T09:07:43;6.70;99.90
17236;DHT22;8734;59.272;17.780;2023-04-03T09:10:18;6.40;99.90
17236;DHT22;8734;59.272;17.780;2023-04-03T09:12:53;6.90;99.90
17236;DHT22;8734;59.272;17.780;2023-04-03T09:15:25;6.70;99.90
17236;DHT22;8734;59.272;17.780;2023-04-03T09:18:12;6.60;99.90
17236;DHT22;8734;59.272;17.780;2023-04-03T09:20:46;6.60;99.90
17236;DHT22;8734;59.272;17.780;2023-04-03T09:23:23;6.40;99.90
17236;DHT22;8734;59.272;17.780;2023-04-03T09:25:56;6.20;99.90
17236;DHT22;8734;59.272;17.780;2023-04-03T09:28:28;6.10;99.90
17236;DHT22;8734;59.272;17.780;2023-04-03T09:31:20;6.20;99.90
17236;DHT22;8734;59.272;17.780;2023-04-03T09:33:50;6.80;99.90
17236;DHT22;8734;59.272;17.780;2023-04-03T09:36:39;7.20;99.90
17236;DHT22;8734;59.272;17.780;2023-04-03T09:39:12;7.30;99.90
17236;DHT22;8734;59.272;17.780;2023-04-03T09:41:41;6.90;99.90
17236;DHT22;8734;59.272;17.780;2023-04-03T09:44:22;6.60;99.90
17236;DHT22;8734;59.272;17.780;2023-04-03T09:46:52;6.60;99.90
17236;DHT22;8734;59.272;17.780;2023-04-03T09:49:21;6.80;99.90
17236;DHT22;8734;59.272;17.780;2023-04-03T09:51:49;7.20;99.90
17236;DHT22;8734;59.272;17.780;2023-04-03T09:54:30;7.00;99.90
17236;DHT22;8734;59.272;17.780;2023-04-03T09:57:02;6.90;99.90
17236;DHT22;8734;59.272;17.780;2023-04-03T09:59:32;7.20;99.90
17236;DHT22;8734;59.272;17.780;2023-04-03T10:02:14;7.30;99.90
17236;DHT22;8734;59.272;17.780;2023-04-03T10:04:46;7.20;99.90
17236;DHT22;8734;59.272;17.780;2023-04-03T10:07:30;7.20;99.90
17236;DHT22;8734;59.272;17.780;2023-04-03T10:10:01;7.60;99.90
17236;DHT22;8734;59.272;17.780;2023-04-03T10:12:30;8.30;99.90
17236;DHT22;8734;59.272;17.780;2023-04-03T10:15:00;8.00;99.90
17236;DHT22;8734;59.272;17.780;2023-04-03T10:17:37;8.60;99.90
17236;DHT22;8734;59.272;17.780;2023-04-03T10:20:30;8.50;99.90
17236;DHT22;8734;59.272;17.780;2023-04-03T10:23:12;9.00;99.90
17236;DHT22;8734;59.272;17.780;2023-04-03T10:25:50;9.30;99.90
17236;DHT22;8734;59.272;17.780;2023-04-03T10:28:25;9.40;99.90
17236;DHT22;8734;59.272;17.780;2023-04-03T10:31:00;9.50;99.90
17236;DHT22;8734;59.272;17.780;2023-04-03T10:33:42;9.40;99.90
17236;DHT22;8734;59.272;17.780;2023-04-03T10:36:20;9.70;99.90
17236;DHT22;8734;59.272;17.780;2023-04-03T10:38:57;10.50;99.90
17236;DHT22;8734;59.272;17.780;2023-04-03T10:41:39;10.10;99.90
17236;DHT22;8734;59.272;17.780;2023-04-03T10:44:19;9.80;99.90
17236;DHT22;8734;59.272;17.780;2023-04-03T10:46:50;10.20;99.90
17236;DHT22;8734;59.272;17.780;2023-04-03T10:49:32;10.30;99.90
17236;DHT22;8734;59.272;17.780;2023-04-03T10:52:11;10.30;99.90
17236;DHT22;8734;59.272;17.780;2023-04-03T10:54:49;9.80;99.90
17236;DHT22;8734;59.272;17.780;2023-04-03T10:57:24;8.90;99.90
17236;DHT22;8734;59.272;17.780;2023-04-03T10:59:56;7.00;99.90
17236;DHT22;8734;59.272;17.780;2023-04-03T11:02:29;6.00;99.90
17236;DHT22;8734;59.272;17.780;2023-04-03T11:05:03;5.60;99.90
17236;DHT22;8734;59.272;17.780;2023-04-03T11:07:39;5.20;99.90
17236;DHT22;8734;59.272;17.780;2023-04-03T11:10:12;5.20;99.90
17236;DHT22;8734;59.272;17.780;2023-04-03T11:12:46;5.30;99.90
17236;DHT22;8734;59.272;17.780;2023-04-03T11:15:17;5.40;99.90
17236;DHT22;8734;59.272;17.780;2023-04-03T11:17:51;6.00;99.90
17236;DHT22;8734;59.272;17.780;2023-04-03T11:20:27;6.60;99.90
17236;DHT22;8734;59.272;17.780;2023-04-03T11:23:02;7.00;99.90
17236;DHT22;8734;59.272;17.780;2023-04-03T11:25:33;7.90;99.90
17236;DHT22;8734;59.272;17.780;2023-04-03T11:28:05;8.70;99.90
17236;DHT22;8734;59.272;17.780;2023-04-03T11:30:47;9.30;99.90
17236;DHT22;8734;59.272;17.780;2023-04-03T11:33:31;9.50;99.90
17236;DHT22;8734;59.272;17.780;2023-04-03T11:36:05;9.40;99.90
17236;DHT22;8734;59.272;17.780;2023-04-03T11:38:55;9.50;99.90
17236;DHT22;8734;59.272;17.780;2023-04-03T11:41:27;10.20;99.90
17236;DHT22;8734;59.272;17.780;2023-04-03T11:43:58;10.80;99.90
17236;DHT22;8734;59.272;17.780;2023-04-03T11:46:49;11.50;99.90
17236;DHT22;8734;59.272;17.780;2023-04-03T11:49:55;12.00;99.90
17236;DHT22;8734;59.272;17.780;2023-04-03T11:53:00;11.60;99.90
17236;DHT22;8734;59.272;17.780;2023-04-03T11:55:52;11.70;99.90
17236;DHT22;8734;59.272;17.780;2023-04-03T11:58:23;12.00;99.90
17236;DHT22;8734;59.272;17.780;2023-04-03T12:01:06;11.80;99.30
17236;DHT22;8734;59.272;17.780;2023-04-03T12:03:57;12.30;98.90
17236;DHT22;8734;59.272;17.780;2023-04-03T12:07:01;12.70;97.60
17236;DHT22;8734;59.272;17.780;2023-04-03T12:09:57;12.50;96.10
17236;DHT22;8734;59.272;17.780;2023-04-03T12:12:35;13.90;94.00
17236;DHT22;8734;59.272;17.780;2023-04-03T12:18:55;10.80;93.00
17236;DHT22;8734;59.272;17.780;2023-04-03T12:21:24;7.70;98.10
17236;DHT22;8734;59.272;17.780;2023-04-03T12:24:27;6.40;99.40
17236;DHT22;8734;59.272;17.780;2023-04-03T12:27:09;5.50;99.90
17236;DHT22;8734;59.272;17.780;2023-04-03T12:29:47;5.80;99.90
17236;DHT22;8734;59.272;17.780;2023-04-03T12:32:26;8.50;99.80
17236;DHT22;8734;59.272;17.780;2023-04-03T12:35:10;11.10;96.20
17236;DHT22;8734;59.272;17.780;2023-04-03T12:38:06;13.30;92.70
17236;DHT22;8734;59.272;17.780;2023-04-03T12:40:47;14.00;90.20
17236;DHT22;8734;59.272;17.780;2023-04-03T12:43:39;14.30;81.60
17236;DHT22;8734;59.272;17.780;2023-04-03T12:46:13;13.60;82.10
17236;DHT22;8734;59.272;17.780;2023-04-03T12:48:48;14.80;78.30
17236;DHT22;8734;59.272;17.780;2023-04-03T12:51:20;14.70;74.60
17236;DHT22;8734;59.272;17.780;2023-04-03T12:53:52;12.00;78.40
17236;DHT22;8734;59.272;17.780;2023-04-03T12:56:29;12.20;79.80
17236;DHT22;8734;59.272;17.780;2023-04-03T12:59:15;12.70;79.30
17236;DHT22;8734;59.272;17.780;2023-04-03T13:01:52;12.80;77.10
17236;DHT22;8734;59.272;17.780;2023-04-03T13:04:21;12.80;77.30
17236;DHT22;8734;59.272;17.780;2023-04-03T13:06:50;13.40;74.60
17236;DHT22;8734;59.272;17.780;2023-04-03T13:09:21;12.10;76.70
17236;DHT22;8734;59.272;17.780;2023-04-03T13:11:51;12.60;75.50
17236;DHT22;8734;59.272;17.780;2023-04-03T13:14:23;11.40;77.90
17236;DHT22;8734;59.272;17.780;2023-04-03T13:16:54;11.60;77.00
17236;DHT22;8734;59.272;17.780;2023-04-03T13:19:23;11.80;79.90
17236;DHT22;8734;59.272;17.780;2023-04-03T13:21:59;12.10;80.20
17236;DHT22;8734;59.272;17.780;2023-04-03T13:24:33;11.20;79.20
17236;DHT22;8734;59.272;17.780;2023-04-03T13:27:03;8.20;83.50
17236;DHT22;8734;59.272;17.780;2023-04-03T13:29:35;6.50;89.20
17236;DHT22;8734;59.272;17.780;2023-04-03T13:32:05;5.50;91.60
17236;DHT22;8734;59.272;17.780;2023-04-03T13:34:37;5.10;93.10
17236;DHT22;8734;59.272;17.780;2023-04-03T13:37:11;5.10;95.50
17236;DHT22;8734;59.272;17.780;2023-04-03T13:39:57;5.30;94.90
17236;DHT22;8734;59.272;17.780;2023-04-03T13:42:27;5.20;95.30
17236;DHT22;8734;59.272;17.780;2023-04-03T13:45:17;5.30;95.70
17236;DHT22;8734;59.272;17.780;2023-04-03T13:47:49;5.20;95.00
17236;DHT22;8734;59.272;17.780;2023-04-03T13:50:21;5.20;95.60
17236;DHT22;8734;59.272;17.780;2023-04-03T13:52:54;5.20;96.20
17236;DHT22;8734;59.272;17.780;2023-04-03T13:55:25;5.20;96.00
17236;DHT22;8734;59.272;17.780;2023-04-03T13:57:57;5.20;96.60
17236;DHT22;8734;59.272;17.780;2023-04-03T14:00:35;5.30;97.80
17236;DHT22;8734;59.272;17.780;2023-04-03T14:03:13;5.30;96.50
17236;DHT22;8734;59.272;17.780;2023-04-03T14:05:41;5.30;96.10
17236;DHT22;8734;59.272;17.780;2023-04-03T14:08:10;5.30;97.00
17236;DHT22;8734;59.272;17.780;2023-04-03T14:10:38;5.40;95.80
17236;DHT22;8734;59.272;17.780;2023-04-03T14:13:11;5.50;95.90
17236;DHT22;8734;59.272;17.780;2023-04-03T14:15:41;5.50;96.30
17236;DHT22;8734;59.272;17.780;2023-04-03T14:18:11;5.40;96.40
17236;DHT22;8734;59.272;17.780;2023-04-03T14:20:40;5.30;96.70
17236;DHT22;8734;59.272;17.780;2023-04-03T14:23:08;5.40;97.20
17236;DHT22;8734;59.272;17.780;2023-04-03T14:25:39;5.60;98.00
17236;DHT22;8734;59.272;17.780;2023-04-03T14:28:15;5.70;96.10
17236;DHT22;8734;59.272;17.780;2023-04-03T14:30:46;5.60;96.70
17236;DHT22;8734;59.272;17.780;2023-04-03T14:33:17;5.60;96.00
17236;DHT22;8734;59.272;17.780;2023-04-03T14:35:47;5.60;96.30
17236;DHT22;8734;59.272;17.780;2023-04-03T14:38:22;5.80;95.40
17236;DHT22;8734;59.272;17.780;2023-04-03T14:40:52;5.90;95.50
17236;DHT22;8734;59.272;17.780;2023-04-03T14:43:25;6.00;94.30
17236;DHT22;8734;59.272;17.780;2023-04-03T14:45:54;6.00;95.50
17236;DHT22;8734;59.272;17.780;2023-04-03T14:48:26;6.20;95.60
17236;DHT22;8734;59.272;17.780;2023-04-03T14:50:56;6.40;96.40
17236;DHT22;8734;59.272;17.780;2023-04-03T14:53:32;6.60;97.00
17236;DHT22;8734;59.272;17.780;2023-04-03T14:56:11;7.10;95.20
17236;DHT22;8734;59.272;17.780;2023-04-03T14:58:40;7.20;95.10
17236;DHT22;8734;59.272;17.780;2023-04-03T15:01:11;7.10;94.50
17236;DHT22;8734;59.272;17.780;2023-04-03T15:03:41;6.90;93.40
17236;DHT22;8734;59.272;17.780;2023-04-03T15:06:10;6.80;93.30
17236;DHT22;8734;59.272;17.780;2023-04-03T15:08:40;6.70;92.60
17236;DHT22;8734;59.272;17.780;2023-04-03T15:11:10;6.50;92.20
17236;DHT22;8734;59.272;17.780;2023-04-03T15:13:39;6.50;92.30
17236;DHT22;8734;59.272;17.780;2023-04-03T15:16:15;6.40;91.50
17236;DHT22;8734;59.272;17.780;2023-04-03T15:18:45;6.40;90.70
17236;DHT22;8734;59.272;17.780;2023-04-03T15:21:14;6.30;91.10
17236;DHT22;8734;59.272;17.780;2023-04-03T15:23:42;6.40;91.30
17236;DHT22;8734;59.272;17.780;2023-04-03T15:26:10;6.40;91.10
17236;DHT22;8734;59.272;17.780;2023-04-03T15:28:41;6.40;91.10
17236;DHT22;8734;59.272;17.780;2023-04-03T15:31:12;6.20;91.90
17236;DHT22;8734;59.272;17.780;2023-04-03T15:33:41;6.00;92.30
17236;DHT22;8734;59.272;17.780;2023-04-03T15:36:10;5.90;93.30
17236;DHT22;8734;59.272;17.780;2023-04-03T15:38:42;5.90;91.20
17236;DHT22;8734;59.272;17.780;2023-04-03T15:41:11;5.80;90.30
17236;DHT22;8734;59.272;17.780;2023-04-03T15:43:39;5.80;91.70
17236;DHT22;8734;59.272;17.780;2023-04-03T15:46:07;5.80;91.90
17236;DHT22;8734;59.272;17.780;2023-04-03T15:48:38;5.80;91.60
17236;DHT22;8734;59.272;17.780;2023-04-03T15:51:06;5.70;91.70
17236;DHT22;8734;59.272;17.780;2023-04-03T15:53:34;5.60;92.50
17236;DHT22;8734;59.272;17.780;2023-04-03T15:56:03;5.50;91.60
17236;DHT22;8734;59.272;17.780;2023-04-03T15:58:32;5.40;91.40
17236;DHT22;8734;59.272;17.780;2023-04-03T16:01:01;5.30;91.90
17236;DHT22;8734;59.272;17.780;2023-04-03T16:03:30;5.20;92.20
17236;DHT22;8734;59.272;17.780;2023-04-03T16:06:00;5.10;93.20
17236;DHT22;8734;59.272;17.780;2023-04-03T16:08:29;5.00;93.30
17236;DHT22;8734;59.272;17.780;2023-04-03T16:10:58;5.00;93.60